Marwayne, Canada
Current Conditions -  °F | °C
As of 5:00 AM on Monday 20 Oct 2014 (Local Time) from CYLL Reporting Station
Clear Clear  
Wind Chill: 41°   Ceiling: Unl
Heat Index: 45°   Visibility: 9mi
Dew Point: 36°   Wind: 7mph
Humidity: 71%   Direction: 180°S
Pressure: 29.62"   Gusts: NA
Location:  53.52°N, 110.33°W
Report Text: CYLL 201100Z AUTO 18006KT 9SM CLR 07/02 A2962 RMK SLP043
Loading
Personal Weather Stations






























Interactive Weather Map
Tropical Storm Tracking
New forecast layout! Learn more

10-Day Weather Forecast

Advertisements
Track Severe Weather on mobile